sensor_id;sensor_type;location;lat;lon;timestamp;P1;durP1;ratioP1;P2;durP2;ratioP2
61642;SDS011;47551;52.506;4.678;2024-03-02T00:00:31;4.22;;;1.90;;
61642;SDS011;47551;52.506;4.678;2024-03-02T00:00:51;4.90;;;2.00;;
61642;SDS011;47551;52.506;4.678;2024-03-02T00:01:12;4.00;;;1.80;;
61642;SDS011;47551;52.506;4.678;2024-03-02T00:01:33;4.68;;;2.10;;
61642;SDS011;47551;52.506;4.678;2024-03-02T00:01:54;5.70;;;2.27;;
61642;SDS011;47551;52.506;4.678;2024-03-02T00:02:14;5.63;;;2.20;;
61642;SDS011;47551;52.506;4.678;2024-03-02T00:02:44;4.23;;;1.97;;
61642;SDS011;47551;52.506;4.678;2024-03-02T00:03:05;3.50;;;1.98;;
61642;SDS011;47551;52.506;4.678;2024-03-02T00:03:32;4.25;;;2.10;;
61642;SDS011;47551;52.506;4.678;2024-03-02T00:03:53;3.72;;;2.00;;
61642;SDS011;47551;52.506;4.678;2024-03-02T00:04:13;3.77;;;2.10;;
61642;SDS011;47551;52.506;4.678;2024-03-02T00:04:33;4.33;;;2.00;;
61642;SDS011;47551;52.506;4.678;2024-03-02T00:04:53;5.20;;;2.15;;
61642;SDS011;47551;52.506;4.678;2024-03-02T00:05:17;5.03;;;2.20;;
61642;SDS011;47551;52.506;4.678;2024-03-02T00:05:38;4.32;;;1.98;;
61642;SDS011;47551;52.506;4.678;2024-03-02T00:05:58;4.50;;;2.10;;
61642;SDS011;47551;52.506;4.678;2024-03-02T00:06:19;4.70;;;1.95;;
61642;SDS011;47551;52.506;4.678;2024-03-02T00:06:40;4.18;;;1.80;;
61642;SDS011;47551;52.506;4.678;2024-03-02T00:07:00;4.37;;;1.83;;
61642;SDS011;47551;52.506;4.678;2024-03-02T00:07:20;3.60;;;1.80;;
61642;SDS011;47551;52.506;4.678;2024-03-02T00:08:23;3.67;;;1.90;;
61642;SDS011;47551;52.506;4.678;2024-03-02T00:08:24;3.80;;;2.10;;
61642;SDS011;47551;52.506;4.678;2024-03-02T00:08:47;4.63;;;1.90;;
61642;SDS011;47551;52.506;4.678;2024-03-02T00:09:08;3.87;;;1.63;;
61642;SDS011;47551;52.506;4.678;2024-03-02T00:09:35;3.35;;;1.70;;
61642;SDS011;47551;52.506;4.678;2024-03-02T00:09:56;4.70;;;1.65;;
61642;SDS011;47551;52.506;4.678;2024-03-02T00:10:16;4.70;;;1.80;;
61642;SDS011;47551;52.506;4.678;2024-03-02T00:10:39;3.92;;;1.80;;
61642;SDS011;47551;52.506;4.678;2024-03-02T00:11:00;4.47;;;1.80;;
61642;SDS011;47551;52.506;4.678;2024-03-02T00:11:20;4.32;;;1.70;;
61642;SDS011;47551;52.506;4.678;2024-03-02T00:11:43;3.55;;;1.52;;
61642;SDS011;47551;52.506;4.678;2024-03-02T00:12:06;3.50;;;1.60;;
61642;SDS011;47551;52.506;4.678;2024-03-02T00:12:27;4.40;;;1.80;;
61642;SDS011;47551;52.506;4.678;2024-03-02T00:12:47;4.37;;;1.70;;
61642;SDS011;47551;52.506;4.678;2024-03-02T00:13:08;3.57;;;1.40;;
61642;SDS011;47551;52.506;4.678;2024-03-02T00:13:28;2.95;;;1.30;;
61642;SDS011;47551;52.506;4.678;2024-03-02T00:13:52;3.25;;;1.33;;
61642;SDS011;47551;52.506;4.678;2024-03-02T00:14:12;3.05;;;1.40;;
61642;SDS011;47551;52.506;4.678;2024-03-02T00:14:32;3.47;;;1.33;;
61642;SDS011;47551;52.506;4.678;2024-03-02T00:14:53;2.90;;;1.30;;
61642;SDS011;47551;52.506;4.678;2024-03-02T00:15:57;3.15;;;1.20;;
61642;SDS011;47551;52.506;4.678;2024-03-02T00:16:17;2.97;;;1.27;;
61642;SDS011;47551;52.506;4.678;2024-03-02T00:16:38;2.55;;;1.00;;
61642;SDS011;47551;52.506;4.678;2024-03-02T00:16:58;2.60;;;1.00;;
61642;SDS011;47551;52.506;4.678;2024-03-02T00:17:21;3.28;;;1.20;;
61642;SDS011;47551;52.506;4.678;2024-03-02T00:17:44;2.25;;;0.90;;
61642;SDS011;47551;52.506;4.678;2024-03-02T00:18:05;2.40;;;1.05;;
61642;SDS011;47551;52.506;4.678;2024-03-02T00:18:27;2.57;;;1.00;;
61642;SDS011;47551;52.506;4.678;2024-03-02T00:18:49;2.20;;;1.00;;
61642;SDS011;47551;52.506;4.678;2024-03-02T00:19:10;1.83;;;0.97;;
61642;SDS011;47551;52.506;4.678;2024-03-02T00:19:30;2.63;;;1.00;;
61642;SDS011;47551;52.506;4.678;2024-03-02T00:19:50;2.50;;;0.98;;
61642;SDS011;47551;52.506;4.678;2024-03-02T00:20:10;2.57;;;1.00;;
61642;SDS011;47551;52.506;4.678;2024-03-02T00:20:35;2.40;;;0.95;;
61642;SDS011;47551;52.506;4.678;2024-03-02T00:20:56;3.57;;;0.90;;
61642;SDS011;47551;52.506;4.678;2024-03-02T00:21:16;3.33;;;1.00;;
61642;SDS011;47551;52.506;4.678;2024-03-02T00:21:40;2.75;;;0.98;;
61642;SDS011;47551;52.506;4.678;2024-03-02T00:22:00;3.10;;;0.90;;
61642;SDS011;47551;52.506;4.678;2024-03-02T00:22:21;2.83;;;0.90;;
61642;SDS011;47551;52.506;4.678;2024-03-02T00:22:44;2.97;;;0.98;;
61642;SDS011;47551;52.506;4.678;2024-03-02T00:23:06;2.37;;;0.90;;
61642;SDS011;47551;52.506;4.678;2024-03-02T00:23:30;2.28;;;1.00;;
61642;SDS011;47551;52.506;4.678;2024-03-02T00:23:51;2.40;;;0.80;;
61642;SDS011;47551;52.506;4.678;2024-03-02T00:24:54;2.65;;;0.90;;
61642;SDS011;47551;52.506;4.678;2024-03-02T00:24:55;2.28;;;0.85;;
61642;SDS011;47551;52.506;4.678;2024-03-02T00:25:22;2.87;;;0.90;;
61642;SDS011;47551;52.506;4.678;2024-03-02T00:25:52;2.47;;;0.80;;
61642;SDS011;47551;52.506;4.678;2024-03-02T00:26:13;2.50;;;0.80;;
61642;SDS011;47551;52.506;4.678;2024-03-02T00:26:33;2.00;;;0.77;;
61642;SDS011;47551;52.506;4.678;2024-03-02T00:26:54;2.70;;;0.83;;
61642;SDS011;47551;52.506;4.678;2024-03-02T00:27:14;2.30;;;0.77;;
61642;SDS011;47551;52.506;4.678;2024-03-02T00:27:35;2.58;;;0.90;;
61642;SDS011;47551;52.506;4.678;2024-03-02T00:27:55;2.50;;;1.00;;
61642;SDS011;47551;52.506;4.678;2024-03-02T00:28:36;2.88;;;0.90;;
61642;SDS011;47551;52.506;4.678;2024-03-02T00:28:56;2.07;;;0.87;;
61642;SDS011;47551;52.506;4.678;2024-03-02T00:29:17;2.55;;;0.90;;
61642;SDS011;47551;52.506;4.678;2024-03-02T00:29:38;2.20;;;0.80;;
61642;SDS011;47551;52.506;4.678;2024-03-02T00:30:06;1.48;;;0.70;;
61642;SDS011;47551;52.506;4.678;2024-03-02T00:31:20;1.70;;;0.70;;
61642;SDS011;47551;52.506;4.678;2024-03-02T00:31:40;2.70;;;0.95;;
61642;SDS011;47551;52.506;4.678;2024-03-02T00:32:00;3.07;;;1.00;;
61642;SDS011;47551;52.506;4.678;2024-03-02T00:32:21;1.83;;;0.90;;
61642;SDS011;47551;52.506;4.678;2024-03-02T00:32:42;1.80;;;0.80;;
61642;SDS011;47551;52.506;4.678;2024-03-02T00:33:05;2.58;;;0.98;;
61642;SDS011;47551;52.506;4.678;2024-03-02T00:33:27;2.25;;;0.77;;
61642;SDS011;47551;52.506;4.678;2024-03-02T00:33:48;2.22;;;0.90;;
61642;SDS011;47551;52.506;4.678;2024-03-02T00:34:09;2.40;;;0.95;;
61642;SDS011;47551;52.506;4.678;2024-03-02T00:34:31;2.78;;;1.00;;
61642;SDS011;47551;52.506;4.678;2024-03-02T00:34:52;2.95;;;0.98;;
61642;SDS011;47551;52.506;4.678;2024-03-02T00:35:13;2.60;;;0.90;;
61642;SDS011;47551;52.506;4.678;2024-03-02T00:35:33;2.70;;;0.83;;
61642;SDS011;47551;52.506;4.678;2024-03-02T00:35:53;1.63;;;0.80;;
61642;SDS011;47551;52.506;4.678;2024-03-02T00:36:15;2.07;;;0.73;;
61642;SDS011;47551;52.506;4.678;2024-03-02T00:36:35;2.20;;;0.80;;
61642;SDS011;47551;52.506;4.678;2024-03-02T00:36:57;2.03;;;0.80;;
61642;SDS011;47551;52.506;4.678;2024-03-02T00:37:17;1.80;;;0.70;;
61642;SDS011;47551;52.506;4.678;2024-03-02T00:37:38;2.05;;;0.80;;
61642;SDS011;47551;52.506;4.678;2024-03-02T00:38:01;2.35;;;0.90;;
61642;SDS011;47551;52.506;4.678;2024-03-02T00:38:23;2.38;;;0.80;;
61642;SDS011;47551;52.506;4.678;2024-03-02T00:38:50;2.10;;;0.87;;
61642;SDS011;47551;52.506;4.678;2024-03-02T00:39:14;1.70;;;0.70;;
61642;SDS011;47551;52.506;4.678;2024-03-02T00:39:35;1.73;;;0.70;;
61642;SDS011;47551;52.506;4.678;2024-03-02T00:39:55;1.50;;;0.70;;
61642;SDS011;47551;52.506;4.678;2024-03-02T00:40:16;2.42;;;0.90;;
61642;SDS011;47551;52.506;4.678;2024-03-02T00:40:37;2.10;;;0.85;;
61642;SDS011;47551;52.506;4.678;2024-03-02T00:41:04;1.50;;;0.67;;
61642;SDS011;47551;52.506;4.678;2024-03-02T00:41:26;2.47;;;0.73;;
61642;SDS011;47551;52.506;4.678;2024-03-02T00:41:50;2.45;;;0.73;;
61642;SDS011;47551;52.506;4.678;2024-03-02T00:42:11;2.40;;;0.70;;
61642;SDS011;47551;52.506;4.678;2024-03-02T00:42:31;1.67;;;0.68;;
61642;SDS011;47551;52.506;4.678;2024-03-02T00:42:51;1.83;;;0.83;;
61642;SDS011;47551;52.506;4.678;2024-03-02T00:43:41;2.45;;;0.75;;
61642;SDS011;47551;52.506;4.678;2024-03-02T00:44:03;2.30;;;0.90;;
61642;SDS011;47551;52.506;4.678;2024-03-02T00:44:25;2.17;;;0.70;;
61642;SDS011;47551;52.506;4.678;2024-03-02T00:44:46;2.55;;;0.77;;
61642;SDS011;47551;52.506;4.678;2024-03-02T00:45:07;1.73;;;0.73;;
61642;SDS011;47551;52.506;4.678;2024-03-02T00:45:28;2.00;;;0.75;;
61642;SDS011;47551;52.506;4.678;2024-03-02T00:45:48;1.77;;;0.70;;
61642;SDS011;47551;52.506;4.678;2024-03-02T00:46:09;2.13;;;0.80;;
61642;SDS011;47551;52.506;4.678;2024-03-02T00:46:33;2.60;;;0.88;;
61642;SDS011;47551;52.506;4.678;2024-03-02T00:46:53;1.55;;;0.63;;
61642;SDS011;47551;52.506;4.678;2024-03-02T00:47:13;2.37;;;0.70;;
61642;SDS011;47551;52.506;4.678;2024-03-02T00:47:38;2.30;;;0.80;;
61642;SDS011;47551;52.506;4.678;2024-03-02T00:48:01;2.17;;;0.85;;
61642;SDS011;47551;52.506;4.678;2024-03-02T00:48:21;2.25;;;0.80;;
61642;SDS011;47551;52.506;4.678;2024-03-02T00:48:48;2.10;;;0.77;;
61642;SDS011;47551;52.506;4.678;2024-03-02T00:49:29;2.15;;;0.82;;
61642;SDS011;47551;52.506;4.678;2024-03-02T00:49:49;2.17;;;0.85;;
61642;SDS011;47551;52.506;4.678;2024-03-02T00:50:09;3.25;;;0.90;;
61642;SDS011;47551;52.506;4.678;2024-03-02T00:50:32;2.55;;;0.70;;
61642;SDS011;47551;52.506;4.678;2024-03-02T00:50:52;2.43;;;0.70;;
61642;SDS011;47551;52.506;4.678;2024-03-02T00:51:12;1.80;;;0.70;;
61642;SDS011;47551;52.506;4.678;2024-03-02T00:51:33;1.80;;;0.97;;
61642;SDS011;47551;52.506;4.678;2024-03-02T00:51:54;2.10;;;0.85;;
61642;SDS011;47551;52.506;4.678;2024-03-02T00:52:14;1.57;;;0.73;;
61642;SDS011;47551;52.506;4.678;2024-03-02T00:52:35;2.15;;;0.80;;
61642;SDS011;47551;52.506;4.678;2024-03-02T00:52:55;2.40;;;0.80;;
61642;SDS011;47551;52.506;4.678;2024-03-02T00:53:16;2.03;;;0.97;;
61642;SDS011;47551;52.506;4.678;2024-03-02T00:53:37;2.65;;;1.00;;
61642;SDS011;47551;52.506;4.678;2024-03-02T00:54:01;2.40;;;0.90;;
61642;SDS011;47551;52.506;4.678;2024-03-02T00:54:26;1.63;;;0.88;;
61642;SDS011;47551;52.506;4.678;2024-03-02T00:54:47;2.63;;;1.00;;
61642;SDS011;47551;52.506;4.678;2024-03-02T00:55:11;1.60;;;0.80;;
61642;SDS011;47551;52.506;4.678;2024-03-02T00:55:33;2.67;;;1.02;;
61642;SDS011;47551;52.506;4.678;2024-03-02T00:55:55;2.15;;;1.00;;
61642;SDS011;47551;52.506;4.678;2024-03-02T00:56:16;2.03;;;0.90;;
61642;SDS011;47551;52.506;4.678;2024-03-02T00:56:36;2.50;;;1.00;;
61642;SDS011;47551;52.506;4.678;2024-03-02T00:56:56;3.63;;;1.10;;
61642;SDS011;47551;52.506;4.678;2024-03-02T00:57:17;2.50;;;1.00;;
61642;SDS011;47551;52.506;4.678;2024-03-02T00:57:37;2.50;;;0.90;;
61642;SDS011;47551;52.506;4.678;2024-03-02T00:57:57;2.63;;;1.00;;
61642;SDS011;47551;52.506;4.678;2024-03-02T00:58:18;2.47;;;0.98;;
61642;SDS011;47551;52.506;4.678;2024-03-02T00:58:38;2.37;;;1.10;;
61642;SDS011;47551;52.506;4.678;2024-03-02T00:58:58;2.83;;;1.10;;
61642;SDS011;47551;52.506;4.678;2024-03-02T00:59:18;2.60;;;1.08;;
61642;SDS011;47551;52.506;4.678;2024-03-02T00:59:39;2.40;;;1.07;;
61642;SDS011;47551;52.506;4.678;2024-03-02T00:59:59;2.50;;;1.10;;
61642;SDS011;47551;52.506;4.678;2024-03-02T01:00:19;2.53;;;1.10;;
61642;SDS011;47551;52.506;4.678;2024-03-02T01:00:39;2.38;;;1.02;;
61642;SDS011;47551;52.506;4.678;2024-03-02T01:01:00;2.30;;;1.00;;
61642;SDS011;47551;52.506;4.678;2024-03-02T01:01:20;2.40;;;1.10;;
61642;SDS011;47551;52.506;4.678;2024-03-02T01:01:40;2.50;;;1.20;;
61642;SDS011;47551;52.506;4.678;2024-03-02T01:02:03;2.10;;;1.00;;
61642;SDS011;47551;52.506;4.678;2024-03-02T01:02:24;2.17;;;1.10;;
61642;SDS011;47551;52.506;4.678;2024-03-02T01:02:44;2.03;;;1.07;;
61642;SDS011;47551;52.506;4.678;2024-03-02T01:03:06;3.00;;;1.30;;
61642;SDS011;47551;52.506;4.678;2024-03-02T01:03:27;1.95;;;1.02;;
61642;SDS011;47551;52.506;4.678;2024-03-02T01:03:48;2.33;;;1.10;;
61642;SDS011;47551;52.506;4.678;2024-03-02T01:04:09;2.17;;;1.00;;
61642;SDS011;47551;52.506;4.678;2024-03-02T01:04:35;2.55;;;1.17;;
61642;SDS011;47551;52.506;4.678;2024-03-02T01:04:55;3.35;;;1.27;;
61642;SDS011;47551;52.506;4.678;2024-03-02T01:05:15;2.33;;;1.10;;
61642;SDS011;47551;52.506;4.678;2024-03-02T01:05:39;2.57;;;1.17;;
61642;SDS011;47551;52.506;4.678;2024-03-02T01:06:00;2.42;;;1.20;;
61642;SDS011;47551;52.506;4.678;2024-03-02T01:06:21;3.20;;;1.20;;
61642;SDS011;47551;52.506;4.678;2024-03-02T01:06:42;2.88;;;1.33;;
61642;SDS011;47551;52.506;4.678;2024-03-02T01:07:02;2.63;;;1.10;;
61642;SDS011;47551;52.506;4.678;2024-03-02T01:07:22;2.60;;;1.03;;
61642;SDS011;47551;52.506;4.678;2024-03-02T01:07:45;3.03;;;1.30;;
61642;SDS011;47551;52.506;4.678;2024-03-02T01:08:06;2.80;;;1.30;;
61642;SDS011;47551;52.506;4.678;2024-03-02T01:08:32;3.00;;;1.30;;
61642;SDS011;47551;52.506;4.678;2024-03-02T01:08:52;3.13;;;1.30;;
61642;SDS011;47551;52.506;4.678;2024-03-02T01:09:13;2.65;;;1.30;;
61642;SDS011;47551;52.506;4.678;2024-03-02T01:09:35;2.57;;;1.30;;
61642;SDS011;47551;52.506;4.678;2024-03-02T01:09:56;2.53;;;1.20;;
61642;SDS011;47551;52.506;4.678;2024-03-02T01:10:16;2.60;;;1.10;;
61642;SDS011;47551;52.506;4.678;2024-03-02T01:10:36;2.60;;;1.30;;
61642;SDS011;47551;52.506;4.678;2024-03-02T01:10:56;2.70;;;1.30;;
61642;SDS011;47551;52.506;4.678;2024-03-02T01:11:17;2.93;;;1.30;;
61642;SDS011;47551;52.506;4.678;2024-03-02T01:11:37;2.70;;;1.17;;
61642;SDS011;47551;52.506;4.678;2024-03-02T01:12:00;2.30;;;1.20;;
61642;SDS011;47551;52.506;4.678;2024-03-02T01:12:23;2.17;;;1.27;;
61642;SDS011;47551;52.506;4.678;2024-03-02T01:12:44;2.80;;;1.30;;
61642;SDS011;47551;52.506;4.678;2024-03-02T01:13:04;2.73;;;1.23;;
61642;SDS011;47551;52.506;4.678;2024-03-02T01:13:27;2.30;;;1.10;;
61642;SDS011;47551;52.506;4.678;2024-03-02T01:13:50;2.58;;;1.40;;
61642;SDS011;47551;52.506;4.678;2024-03-02T01:14:10;2.77;;;1.37;;
61642;SDS011;47551;52.506;4.678;2024-03-02T01:14:31;2.93;;;1.30;;
61642;SDS011;47551;52.506;4.678;2024-03-02T01:14:51;2.70;;;1.33;;
61642;SDS011;47551;52.506;4.678;2024-03-02T01:15:11;2.97;;;1.30;;
61642;SDS011;47551;52.506;4.678;2024-03-02T01:15:31;3.27;;;1.37;;
61642;SDS011;47551;52.506;4.678;2024-03-02T01:15:52;3.13;;;1.40;;
61642;SDS011;47551;52.506;4.678;2024-03-02T01:16:13;3.00;;;1.30;;
61642;SDS011;47551;52.506;4.678;2024-03-02T01:16:33;2.90;;;1.30;;
61642;SDS011;47551;52.506;4.678;2024-03-02T01:16:54;2.22;;;1.23;;
61642;SDS011;47551;52.506;4.678;2024-03-02T01:17:14;2.20;;;1.20;;
61642;SDS011;47551;52.506;4.678;2024-03-02T01:17:34;2.50;;;1.27;;
61642;SDS011;47551;52.506;4.678;2024-03-02T01:17:54;4.33;;;1.53;;
61642;SDS011;47551;52.506;4.678;2024-03-02T01:18:14;4.43;;;1.58;;
61642;SDS011;47551;52.506;4.678;2024-03-02T01:18:34;3.00;;;1.50;;
61642;SDS011;47551;52.506;4.678;2024-03-02T01:18:55;3.77;;;1.57;;
61642;SDS011;47551;52.506;4.678;2024-03-02T01:19:15;3.17;;;1.50;;
61642;SDS011;47551;52.506;4.678;2024-03-02T01:19:35;3.05;;;1.42;;
61642;SDS011;47551;52.506;4.678;2024-03-02T01:19:55;3.70;;;1.40;;
61642;SDS011;47551;52.506;4.678;2024-03-02T01:20:15;3.30;;;1.53;;
61642;SDS011;47551;52.506;4.678;2024-03-02T01:20:36;2.73;;;1.30;;
61642;SDS011;47551;52.506;4.678;2024-03-02T01:20:59;3.38;;;1.30;;
61642;SDS011;47551;52.506;4.678;2024-03-02T01:21:19;3.92;;;1.55;;
61642;SDS011;47551;52.506;4.678;2024-03-02T01:21:39;3.33;;;1.50;;
61642;SDS011;47551;52.506;4.678;2024-03-02T01:21:59;2.60;;;1.40;;
61642;SDS011;47551;52.506;4.678;2024-03-02T01:22:20;3.70;;;1.50;;
61642;SDS011;47551;52.506;4.678;2024-03-02T01:22:45;2.78;;;1.30;;
61642;SDS011;47551;52.506;4.678;2024-03-02T01:23:05;2.70;;;1.40;;
61642;SDS011;47551;52.506;4.678;2024-03-02T01:23:25;3.40;;;1.30;;
61642;SDS011;47551;52.506;4.678;2024-03-02T01:23:45;2.73;;;1.40;;
61642;SDS011;47551;52.506;4.678;2024-03-02T01:24:05;2.78;;;1.52;;
61642;SDS011;47551;52.506;4.678;2024-03-02T01:24:26;3.40;;;1.40;;
61642;SDS011;47551;52.506;4.678;2024-03-02T01:24:49;2.85;;;1.40;;
61642;SDS011;47551;52.506;4.678;2024-03-02T01:25:11;2.80;;;1.58;;
61642;SDS011;47551;52.506;4.678;2024-03-02T01:25:31;3.05;;;1.40;;
61642;SDS011;47551;52.506;4.678;2024-03-02T01:25:51;3.10;;;1.40;;
61642;SDS011;47551;52.506;4.678;2024-03-02T01:26:12;2.60;;;1.30;;
61642;SDS011;47551;52.506;4.678;2024-03-02T01:26:32;2.30;;;1.20;;
61642;SDS011;47551;52.506;4.678;2024-03-02T01:26:52;2.37;;;1.20;;
61642;SDS011;47551;52.506;4.678;2024-03-02T01:27:12;3.40;;;1.40;;
61642;SDS011;47551;52.506;4.678;2024-03-02T01:27:32;3.53;;;1.30;;
61642;SDS011;47551;52.506;4.678;2024-03-02T01:27:53;2.67;;;1.20;;
61642;SDS011;47551;52.506;4.678;2024-03-02T01:28:13;2.10;;;1.17;;
61642;SDS011;47551;52.506;4.678;2024-03-02T01:28:33;2.40;;;1.10;;
61642;SDS011;47551;52.506;4.678;2024-03-02T01:28:54;2.80;;;1.30;;
61642;SDS011;47551;52.506;4.678;2024-03-02T01:29:17;2.85;;;1.40;;
61642;SDS011;47551;52.506;4.678;2024-03-02T01:29:37;2.30;;;1.20;;
61642;SDS011;47551;52.506;4.678;2024-03-02T01:29:57;2.65;;;1.20;;
61642;SDS011;47551;52.506;4.678;2024-03-02T01:30:19;3.38;;;1.30;;
61642;SDS011;47551;52.506;4.678;2024-03-02T01:30:40;3.10;;;1.20;;
61642;SDS011;47551;52.506;4.678;2024-03-02T01:31:00;3.03;;;1.20;;
61642;SDS011;47551;52.506;4.678;2024-03-02T01:31:23;2.90;;;1.30;;
61642;SDS011;47551;52.506;4.678;2024-03-02T01:31:43;3.45;;;1.40;;
61642;SDS011;47551;52.506;4.678;2024-03-02T01:32:06;3.05;;;1.23;;
61642;SDS011;47551;52.506;4.678;2024-03-02T01:32:27;3.80;;;1.40;;
61642;SDS011;47551;52.506;4.678;2024-03-02T01:32:47;2.95;;;1.40;;
61642;SDS011;47551;52.506;4.678;2024-03-02T01:33:07;2.70;;;1.30;;
61642;SDS011;47551;52.506;4.678;2024-03-02T01:33:27;2.83;;;1.30;;
61642;SDS011;47551;52.506;4.678;2024-03-02T01:33:48;2.33;;;1.13;;
61642;SDS011;47551;52.506;4.678;2024-03-02T01:34:08;2.67;;;1.20;;
61642;SDS011;47551;52.506;4.678;2024-03-02T01:34:28;3.47;;;1.37;;
61642;SDS011;47551;52.506;4.678;2024-03-02T01:34:48;3.37;;;1.37;;
61642;SDS011;47551;52.506;4.678;2024-03-02T01:35:08;2.42;;;1.20;;
61642;SDS011;47551;52.506;4.678;2024-03-02T01:35:29;3.20;;;1.27;;
61642;SDS011;47551;52.506;4.678;2024-03-02T01:35:49;2.93;;;1.20;;
61642;SDS011;47551;52.506;4.678;2024-03-02T01:36:09;4.03;;;1.20;;
61642;SDS011;47551;52.506;4.678;2024-03-02T01:36:29;3.10;;;1.20;;
61642;SDS011;47551;52.506;4.678;2024-03-02T01:36:49;2.97;;;1.10;;
61642;SDS011;47551;52.506;4.678;2024-03-02T01:37:10;2.73;;;1.10;;
61642;SDS011;47551;52.506;4.678;2024-03-02T01:37:30;2.27;;;1.03;;
61642;SDS011;47551;52.506;4.678;2024-03-02T01:37:50;2.58;;;1.25;;
61642;SDS011;47551;52.506;4.678;2024-03-02T01:38:10;2.77;;;1.20;;
61642;SDS011;47551;52.506;4.678;2024-03-02T01:38:30;3.47;;;1.00;;
61642;SDS011;47551;52.506;4.678;2024-03-02T01:38:51;2.70;;;1.00;;
61642;SDS011;47551;52.506;4.678;2024-03-02T01:39:11;2.23;;;1.10;;
61642;SDS011;47551;52.506;4.678;2024-03-02T01:39:34;2.10;;;1.00;;
61642;SDS011;47551;52.506;4.678;2024-03-02T01:39:54;1.88;;;0.90;;
61642;SDS011;47551;52.506;4.678;2024-03-02T01:40:15;2.33;;;1.00;;
61642;SDS011;47551;52.506;4.678;2024-03-02T01:40:35;3.00;;;1.00;;
61642;SDS011;47551;52.506;4.678;2024-03-02T01:40:58;2.67;;;0.90;;
61642;SDS011;47551;52.506;4.678;2024-03-02T01:41:18;2.53;;;0.90;;
61642;SDS011;47551;52.506;4.678;2024-03-02T01:41:38;2.93;;;0.90;;
61642;SDS011;47551;52.506;4.678;2024-03-02T01:41:58;2.57;;;0.97;;
61642;SDS011;47551;52.506;4.678;2024-03-02T01:42:19;2.83;;;1.10;;
61642;SDS011;47551;52.506;4.678;2024-03-02T01:42:39;1.77;;;0.83;;
61642;SDS011;47551;52.506;4.678;2024-03-02T01:42:59;2.20;;;0.73;;
61642;SDS011;47551;52.506;4.678;2024-03-02T01:43:28;1.95;;;0.85;;
61642;SDS011;47551;52.506;4.678;2024-03-02T01:43:49;1.83;;;0.80;;
61642;SDS011;47551;52.506;4.678;2024-03-02T01:44:09;2.17;;;0.80;;
61642;SDS011;47551;52.506;4.678;2024-03-02T01:44:29;2.90;;;0.90;;
61642;SDS011;47551;52.506;4.678;2024-03-02T01:44:49;2.30;;;0.90;;
61642;SDS011;47551;52.506;4.678;2024-03-02T01:45:12;2.33;;;0.80;;
61642;SDS011;47551;52.506;4.678;2024-03-02T01:45:33;2.10;;;0.80;;
61642;SDS011;47551;52.506;4.678;2024-03-02T01:45:53;2.10;;;0.80;;
61642;SDS011;47551;52.506;4.678;2024-03-02T01:46:13;2.17;;;0.70;;
61642;SDS011;47551;52.506;4.678;2024-03-02T01:46:33;2.27;;;0.77;;
61642;SDS011;47551;52.506;4.678;2024-03-02T01:46:54;1.85;;;0.80;;
61642;SDS011;47551;52.506;4.678;2024-03-02T01:47:15;2.47;;;0.83;;
61642;SDS011;47551;52.506;4.678;2024-03-02T01:47:35;2.70;;;0.73;;
61642;SDS011;47551;52.506;4.678;2024-03-02T01:47:55;1.50;;;0.70;;
61642;SDS011;47551;52.506;4.678;2024-03-02T01:48:15;2.40;;;0.80;;
61642;SDS011;47551;52.506;4.678;2024-03-02T01:48:35;2.20;;;0.80;;
61642;SDS011;47551;52.506;4.678;2024-03-02T01:48:58;2.17;;;0.80;;
61642;SDS011;47551;52.506;4.678;2024-03-02T01:49:18;1.93;;;0.67;;
61642;SDS011;47551;52.506;4.678;2024-03-02T01:49:39;1.83;;;0.70;;
61642;SDS011;47551;52.506;4.678;2024-03-02T01:50:01;2.75;;;0.90;;
61642;SDS011;47551;52.506;4.678;2024-03-02T01:50:24;1.85;;;0.65;;
61642;SDS011;47551;52.506;4.678;2024-03-02T01:50:45;1.33;;;0.70;;
61642;SDS011;47551;52.506;4.678;2024-03-02T01:51:05;1.60;;;0.63;;
61642;SDS011;47551;52.506;4.678;2024-03-02T01:51:26;1.88;;;0.60;;
61642;SDS011;47551;52.506;4.678;2024-03-02T01:51:46;2.57;;;0.60;;
61642;SDS011;47551;52.506;4.678;2024-03-02T01:52:07;2.10;;;0.60;;
61642;SDS011;47551;52.506;4.678;2024-03-02T01:52:27;2.00;;;0.60;;
61642;SDS011;47551;52.506;4.678;2024-03-02T01:52:47;1.13;;;0.50;;
61642;SDS011;47551;52.506;4.678;2024-03-02T01:53:10;1.40;;;0.60;;
61642;SDS011;47551;52.506;4.678;2024-03-02T01:53:30;1.57;;;0.50;;
61642;SDS011;47551;52.506;4.678;2024-03-02T01:53:54;1.77;;;0.70;;
61642;SDS011;47551;52.506;4.678;2024-03-02T01:54:14;2.30;;;0.75;;
61642;SDS011;47551;52.506;4.678;2024-03-02T01:54:34;2.35;;;0.70;;
61642;SDS011;47551;52.506;4.678;2024-03-02T01:54:54;1.50;;;0.50;;
61642;SDS011;47551;52.506;4.678;2024-03-02T01:55:15;1.60;;;0.67;;
61642;SDS011;47551;52.506;4.678;2024-03-02T01:55:35;2.20;;;0.60;;
61642;SDS011;47551;52.506;4.678;2024-03-02T01:55:55;2.10;;;0.60;;
61642;SDS011;47551;52.506;4.678;2024-03-02T01:56:15;1.67;;;0.60;;
61642;SDS011;47551;52.506;4.678;2024-03-02T01:56:35;1.90;;;0.60;;
61642;SDS011;47551;52.506;4.678;2024-03-02T01:56:56;1.80;;;0.60;;
61642;SDS011;47551;52.506;4.678;2024-03-02T01:57:16;1.83;;;0.60;;
61642;SDS011;47551;52.506;4.678;2024-03-02T01:57:36;1.63;;;0.60;;
61642;SDS011;47551;52.506;4.678;2024-03-02T01:57:57;1.85;;;0.70;;
61642;SDS011;47551;52.506;4.678;2024-03-02T01:58:17;1.57;;;0.60;;
61642;SDS011;47551;52.506;4.678;2024-03-02T01:58:38;1.50;;;0.57;;
61642;SDS011;47551;52.506;4.678;2024-03-02T01:58:58;2.23;;;0.50;;
61642;SDS011;47551;52.506;4.678;2024-03-02T01:59:18;1.88;;;0.50;;
61642;SDS011;47551;52.506;4.678;2024-03-02T01:59:38;1.70;;;0.50;;
61642;SDS011;47551;52.506;4.678;2024-03-02T01:59:59;1.80;;;0.60;;
61642;SDS011;47551;52.506;4.678;2024-03-02T02:00:19;1.92;;;0.60;;
61642;SDS011;47551;52.506;4.678;2024-03-02T02:00:40;1.80;;;0.60;;
61642;SDS011;47551;52.506;4.678;2024-03-02T02:01:00;2.10;;;0.60;;
61642;SDS011;47551;52.506;4.678;2024-03-02T02:01:20;1.48;;;0.50;;
61642;SDS011;47551;52.506;4.678;2024-03-02T02:01:40;1.73;;;0.50;;
61642;SDS011;47551;52.506;4.678;2024-03-02T02:02:00;2.60;;;0.60;;
61642;SDS011;47551;52.506;4.678;2024-03-02T02:02:21;2.60;;;0.60;;
61642;SDS011;47551;52.506;4.678;2024-03-02T02:02:41;1.83;;;0.60;;
61642;SDS011;47551;52.506;4.678;2024-03-02T02:03:01;1.60;;;0.60;;
61642;SDS011;47551;52.506;4.678;2024-03-02T02:03:21;1.70;;;0.60;;
61642;SDS011;47551;52.506;4.678;2024-03-02T02:03:42;1.98;;;0.60;;
61642;SDS011;47551;52.506;4.678;2024-03-02T02:04:03;1.98;;;0.70;;
61642;SDS011;47551;52.506;4.678;2024-03-02T02:04:23;2.00;;;0.60;;
61642;SDS011;47551;52.506;4.678;2024-03-02T02:04:47;1.67;;;0.50;;
61642;SDS011;47551;52.506;4.678;2024-03-02T02:05:07;1.83;;;0.47;;
61642;SDS011;47551;52.506;4.678;2024-03-02T02:05:28;1.80;;;0.50;;
61642;SDS011;47551;52.506;4.678;2024-03-02T02:05:48;1.77;;;0.50;;
61642;SDS011;47551;52.506;4.678;2024-03-02T02:06:08;1.95;;;0.70;;
61642;SDS011;47551;52.506;4.678;2024-03-02T02:06:28;1.60;;;0.60;;
61642;SDS011;47551;52.506;4.678;2024-03-02T02:06:48;2.30;;;0.50;;
61642;SDS011;47551;52.506;4.678;2024-03-02T02:07:09;1.53;;;0.60;;
61642;SDS011;47551;52.506;4.678;2024-03-02T02:07:29;1.50;;;0.60;;
61642;SDS011;47551;52.506;4.678;2024-03-02T02:07:49;2.20;;;0.60;;
61642;SDS011;47551;52.506;4.678;2024-03-02T02:08:10;1.55;;;0.50;;
61642;SDS011;47551;52.506;4.678;2024-03-02T02:08:30;1.83;;;0.63;;
61642;SDS011;47551;52.506;4.678;2024-03-02T02:08:50;1.83;;;0.60;;
61642;SDS011;47551;52.506;4.678;2024-03-02T02:09:13;2.10;;;0.70;;
61642;SDS011;47551;52.506;4.678;2024-03-02T02:09:33;2.03;;;0.70;;
61642;SDS011;47551;52.506;4.678;2024-03-02T02:09:53;1.30;;;0.60;;
61642;SDS011;47551;52.506;4.678;2024-03-02T02:10:14;2.38;;;0.70;;
61642;SDS011;47551;52.506;4.678;2024-03-02T02:10:34;2.40;;;0.67;;
61642;SDS011;47551;52.506;4.678;2024-03-02T02:10:54;2.90;;;0.70;;